Terminal Aerodrome Forecast
Issued by NWS Louisville, KY

Home | Current Version | Previous Version | Text Only | Print | Product List | Glossary On
Versions: 1 2 3 4 5 6 7 8 9 10 11 12 13 14 15 16 17 18 19 20 21 22 23 24 25
000
FTUS43 KLMK 042300 AAA
TAFSDF
TAF AMD
KSDF 042341Z 0500/0606 36012KT 1/2SM SN FG BKN008
      TEMPO 0500/0504 1/4SM +SN FG BKN004
     FM050800 35008KT 3SM -SN BR BKN015
     FM051300 35007KT P6SM BKN025
     FM052300 33009KT P6SM SCT025=

USA.gov is the U.S. government's official web portal to all federal, state and local government web resources and services.